EGPB/LSI METAR and TAF weather

Enter ICAO airport designator
Station Type Date Time Source
EGPB METAR 2020/07/07 09:50 UTC NOAA

EGPB 070950Z 30014KT 9999 FEW012 SCT025 10/06 Q101


Station Type Date Time Source
EGPB Decoded METAR 2020/07/07 09:50 UTC NOAA

Sumburgh Cape , United Kingdom (EGPB) 59-53N 001-18W
Jul 07, 2020 - 05:50 AM EDT / 2020.07.07 0950 UTC
Wind: from the WNW (300 degrees) at 16 MPH (14 KT):0
Visibility: greater than 7 mile(s):0
Sky conditions: partly cloudy
Temperature: 50 F (10 C)
Dew Point: 42 F (6 C)
Relative Humidity: 76%
Pressure (altimeter): 29.88 in. Hg (1012 hPa)
ob: EGPB 070950Z 30014KT 9999 FEW012 SCT025 10/06 Q1012
cycle: 10

Station Type Date Time Source
EGPB TAF UTC NOAA

Error!

Example: see airport list